Wetterdaten: Woche 21.03.16 - 27.03.16 (KW12)
Datum Zeit Temperatur Luftfeuchte Luftdruck Niederschlag Windrichtung Sonnenschein Solar Wind
21.03.2016 00:00 2,5 C 87 % 1016,9 hPa 0,0 l/m N 0,00 h 0 W/m 7,2 km/h (2 Bft)
21.03.2016 01:00 2,5 C 87 % 1017,0 hPa 0,0 l/m N-NO 0,00 h 0 W/m 7,1 km/h (2 Bft)
21.03.2016 02:00 2,3 C 87 % 1016,8 hPa 0,0 l/m NO 0,00 h 0 W/m 3,5 km/h (1 Bft)
21.03.2016 03:00 2,2 C 87 % 1016,6 hPa 0,0 l/m N 0,00 h 0 W/m 1,7 km/h (1 Bft)
21.03.2016 04:00 2,1 C 87 % 1016,5 hPa 0,0 l/m NO 0,00 h 0 W/m 1,1 km/h (0 Bft)
21.03.2016 05:00 2,1 C 87 % 1016,5 hPa 0,0 l/m N 0,00 h 0 W/m 0,0 km/h (0 Bft)
21.03.2016 06:00 2,1 C 87 % 1016,8 hPa 0,0 l/m N 0,00 h 8 W/m 0,3 km/h (0 Bft)
21.03.2016 07:00 2,2 C 87 % 1017,0 hPa 0,0 l/m N 0,00 h 32 W/m 0,7 km/h (0 Bft)
21.03.2016 08:00 2,7 C 86 % 1017,0 hPa 0,0 l/m NO 0,00 h 61 W/m 2,4 km/h (1 Bft)
21.03.2016 09:00 3,3 C 84 % 1017,3 hPa 0,0 l/m NO 0,00 h 88 W/m 7,5 km/h (2 Bft)
21.03.2016 10:00 4,0 C 81 % 1017,4 hPa 0,0 l/m N-NO 0,00 h 150 W/m 6,1 km/h (2 Bft)
21.03.2016 11:00 5,5 C 75 % 1017,1 hPa 0,0 l/m O-NO 0,00 h 282 W/m 7,6 km/h (2 Bft)
21.03.2016 12:00 6,4 C 67 % 1016,5 hPa 0,0 l/m O 0,08 h 329 W/m 5,2 km/h (1 Bft)
21.03.2016 13:00 7,2 C 64 % 1015,8 hPa 0,0 l/m NO 0,58 h 493 W/m 7,6 km/h (2 Bft)
21.03.2016 14:00 8,3 C 60 % 1015,2 hPa 0,0 l/m N-NO 0,50 h 393 W/m 7,2 km/h (2 Bft)
21.03.2016 15:00 8,9 C 56 % 1014,9 hPa 0,0 l/m O 0,75 h 418 W/m 12,1 km/h (2 Bft)
21.03.2016 16:00 9,0 C 55 % 1014,7 hPa 0,0 l/m O 0,33 h 210 W/m 8,9 km/h (2 Bft)
21.03.2016 17:00 8,1 C 59 % 1014,7 hPa 0,0 l/m NO 0,00 h 53 W/m 10,2 km/h (2 Bft)
21.03.2016 18:00 7,4 C 62 % 1015,1 hPa 0,0 l/m N-NO 0,00 h 9 W/m 8,4 km/h (2 Bft)
21.03.2016 19:00 6,5 C 66 % 1015,3 hPa 0,0 l/m N 0,00 h 0 W/m 2,9 km/h (1 Bft)
21.03.2016 20:00 5,8 C 71 % 1015,5 hPa 0,0 l/m N-NO 0,00 h 0 W/m 3,3 km/h (1 Bft)
21.03.2016 21:00 5,0 C 76 % 1015,5 hPa 0,0 l/m N 0,00 h 0 W/m 0,4 km/h (0 Bft)
21.03.2016 22:00 4,5 C 79 % 1015,6 hPa 0,0 l/m N 0,00 h 0 W/m 0,0 km/h (0 Bft)
21.03.2016 23:00 4,4 C 80 % 1015,3 hPa 0,0 l/m N 0,00 h 0 W/m 0,0 km/h (0 Bft)
22.03.2016 00:00 4,2 C 81 % 1015,0 hPa 0,0 l/m N 0,00 h 0 W/m 1,5 km/h (1 Bft)
22.03.2016 01:00 3,9 C 82 % 1014,6 hPa 0,0 l/m N 0,00 h 0 W/m 1,7 km/h (1 Bft)
22.03.2016 02:00 3,7 C 84 % 1014,2 hPa 0,0 l/m N 0,00 h 0 W/m 0,3 km/h (0 Bft)
22.03.2016 03:00 3,3 C 85 % 1013,6 hPa 0,0 l/m N 0,00 h 0 W/m 0,0 km/h (0 Bft)
22.03.2016 04:00 2,9 C 86 % 1013,3 hPa 0,0 l/m N 0,00 h 0 W/m 0,4 km/h (0 Bft)
22.03.2016 05:00 2,8 C 87 % 1013,1 hPa 0,0 l/m N 0,00 h 0 W/m 0,1 km/h (0 Bft)
22.03.2016 06:00 2,6 C 88 % 1013,0 hPa 0,0 l/m N 0,08 h 14 W/m 0,3 km/h (0 Bft)
22.03.2016 07:00 2,0 C 90 % 1013,1 hPa 0,0 l/m N-NO 0,08 h 70 W/m 2,7 km/h (1 Bft)
22.03.2016 08:00 3,5 C 88 % 1012,8 hPa 0,0 l/m NO 1,00 h 278 W/m 6,8 km/h (2 Bft)
22.03.2016 09:00 5,2 C 77 % 1012,6 hPa 0,0 l/m O-NO 0,83 h 365 W/m 12,9 km/h (3 Bft)
22.03.2016 10:00 6,7 C 64 % 1012,1 hPa 0,0 l/m NO 0,75 h 465 W/m 12,5 km/h (3 Bft)
22.03.2016 11:00 8,2 C 56 % 1011,6 hPa 0,0 l/m O 0,67 h 579 W/m 14,1 km/h (3 Bft)
22.03.2016 12:00 7,5 C 61 % 1011,4 hPa 0,0 l/m N-NO 0,00 h 211 W/m 15,3 km/h (3 Bft)
22.03.2016 13:00 8,0 C 59 % 1011,0 hPa 0,0 l/m NO 0,25 h 335 W/m 12,5 km/h (3 Bft)
22.03.2016 14:00 8,7 C 53 % 1010,2 hPa 0,0 l/m O-SO 0,25 h 319 W/m 12,2 km/h (2 Bft)
22.03.2016 15:00 8,3 C 54 % 1009,8 hPa 0,0 l/m NO 0,00 h 140 W/m 10,1 km/h (2 Bft)
22.03.2016 16:00 8,1 C 54 % 1009,3 hPa 0,0 l/m NO 0,25 h 143 W/m 11,1 km/h (2 Bft)
22.03.2016 17:00 7,8 C 55 % 1009,1 hPa 0,0 l/m NO 0,00 h 60 W/m 10,3 km/h (2 Bft)
22.03.2016 18:00 7,2 C 56 % 1009,3 hPa 0,0 l/m O-NO 0,00 h 12 W/m 7,9 km/h (2 Bft)
22.03.2016 19:00 5,7 C 60 % 1009,2 hPa 0,0 l/m NO 0,00 h 0 W/m 2,5 km/h (1 Bft)
22.03.2016 20:00 3,7 C 70 % 1009,0 hPa 0,0 l/m N 0,00 h 0 W/m 0,1 km/h (0 Bft)
22.03.2016 21:00 3,3 C 76 % 1009,0 hPa 0,0 l/m N 0,00 h 0 W/m 0,3 km/h (0 Bft)
22.03.2016 22:00 3,6 C 74 % 1008,7 hPa 0,0 l/m N 0,00 h 0 W/m 0,3 km/h (0 Bft)
22.03.2016 23:00 3,9 C 73 % 1008,3 hPa 0,0 l/m NO 0,00 h 0 W/m 3,9 km/h (1 Bft)
23.03.2016 00:00 3,8 C 74 % 1007,9 hPa 0,0 l/m NO 0,00 h 0 W/m 3,3 km/h (1 Bft)
23.03.2016 01:00 3,6 C 74 % 1007,5 hPa 0,0 l/m NO 0,00 h 0 W/m 6,4 km/h (2 Bft)
23.03.2016 02:00 3,3 C 76 % 1007,1 hPa 0,0 l/m NO 0,00 h 0 W/m 4,9 km/h (1 Bft)
23.03.2016 03:00 2,4 C 79 % 1006,5 hPa 0,0 l/m N 0,00 h 0 W/m 0,3 km/h (0 Bft)
23.03.2016 04:00 2,0 C 82 % 1006,4 hPa 0,0 l/m N 0,00 h 0 W/m 0,8 km/h (0 Bft)
23.03.2016 05:00 1,9 C 84 % 1006,0 hPa 0,0 l/m NO 0,00 h 0 W/m 4,8 km/h (1 Bft)
23.03.2016 06:00 2,1 C 86 % 1006,3 hPa 0,0 l/m NO 0,00 h 18 W/m 2,3 km/h (1 Bft)
23.03.2016 07:00 2,7 C 86 % 1006,9 hPa 0,0 l/m NO 0,00 h 37 W/m 7,1 km/h (2 Bft)
23.03.2016 08:00 4,0 C 83 % 1006,9 hPa 0,0 l/m NO 0,58 h 206 W/m 10,2 km/h (2 Bft)
23.03.2016 09:00 5,7 C 75 % 1006,8 hPa 0,0 l/m O 0,75 h 414 W/m 15,0 km/h (3 Bft)
23.03.2016 10:00 6,7 C 71 % 1006,9 hPa 0,0 l/m O-NO 0,58 h 337 W/m 16,1 km/h (3 Bft)
23.03.2016 11:00 6,2 C 71 % 1006,9 hPa 0,0 l/m N-NO 0,00 h 120 W/m 15,0 km/h (3 Bft)
23.03.2016 12:00 6,1 C 73 % 1006,9 hPa 0,0 l/m N-NO 0,00 h 95 W/m 9,4 km/h (2 Bft)
23.03.2016 13:00 6,2 C 73 % 1006,8 hPa 0,0 l/m N-NO 0,00 h 76 W/m 13,4 km/h (3 Bft)
23.03.2016 14:00 6,0 C 72 % 1006,8 hPa 0,0 l/m N-NO 0,00 h 89 W/m 9,8 km/h (2 Bft)
23.03.2016 15:00 6,5 C 67 % 1006,8 hPa 0,0 l/m NO 0,00 h 72 W/m 6,7 km/h (2 Bft)
23.03.2016 16:00 6,5 C 67 % 1007,0 hPa 0,0 l/m O-NO 0,00 h 38 W/m 0,9 km/h (0 Bft)
23.03.2016 17:00 6,4 C 69 % 1007,5 hPa 0,0 l/m N 0,00 h 17 W/m 0,0 km/h (0 Bft)
23.03.2016 18:00 6,0 C 75 % 1008,2 hPa 0,0 l/m NO 0,00 h 7 W/m 3,6 km/h (1 Bft)
23.03.2016 19:00 5,4 C 79 % 1008,9 hPa 0,0 l/m NO 0,00 h 0 W/m 4,1 km/h (1 Bft)
23.03.2016 20:00 4,8 C 82 % 1009,6 hPa 0,0 l/m N-NW 0,00 h 0 W/m 9,0 km/h (2 Bft)
23.03.2016 21:00 4,3 C 85 % 1010,1 hPa 0,0 l/m N-NW 0,00 h 0 W/m 3,9 km/h (1 Bft)
23.03.2016 22:00 3,8 C 87 % 1010,4 hPa 0,0 l/m N 0,00 h 0 W/m 1,3 km/h (1 Bft)
23.03.2016 23:00 3,2 C 88 % 1010,4 hPa 0,0 l/m N 0,00 h 0 W/m 0,0 km/h (0 Bft)
24.03.2016 00:00 2,9 C 90 % 1010,6 hPa 0,0 l/m N 0,00 h 0 W/m 0,0 km/h (0 Bft)
24.03.2016 01:00 2,9 C 91 % 1010,8 hPa 0,0 l/m N 0,00 h 0 W/m 0,0 km/h (0 Bft)
24.03.2016 02:00 2,8 C 91 % 1011,0 hPa 0,0 l/m N 0,00 h 0 W/m 0,0 km/h (0 Bft)
24.03.2016 03:00 2,6 C 91 % 1011,1 hPa 0,0 l/m N 0,00 h 0 W/m 0,0 km/h (0 Bft)
24.03.2016 04:00 1,5 C 91 % 1011,3 hPa 0,0 l/m N 0,00 h 0 W/m 0,0 km/h (0 Bft)
24.03.2016 05:00 0,5 C 92 % 1011,6 hPa 0,0 l/m N 0,00 h 0 W/m 0,1 km/h (0 Bft)
24.03.2016 06:00 0,2 C 93 % 1012,2 hPa 0,0 l/m N 0,00 h 14 W/m 0,3 km/h (0 Bft)
24.03.2016 07:00 0,1 C 94 % 1013,2 hPa 0,0 l/m N 0,00 h 45 W/m 0,5 km/h (0 Bft)
24.03.2016 08:00 1,4 C 95 % 1013,8 hPa 0,0 l/m N-NW 0,00 h 89 W/m 1,6 km/h (1 Bft)
24.03.2016 09:00 3,3 C 93 % 1014,3 hPa 0,0 l/m N-NW 0,00 h 129 W/m 2,3 km/h (1 Bft)
24.03.2016 10:00 5,7 C 78 % 1014,4 hPa 0,0 l/m NW 0,00 h 257 W/m 6,8 km/h (2 Bft)
24.03.2016 11:00 6,8 C 60 % 1014,2 hPa 0,0 l/m W 0,08 h 290 W/m 13,6 km/h (3 Bft)
24.03.2016 12:00 7,8 C 53 % 1014,0 hPa 0,0 l/m W 0,25 h 421 W/m 16,5 km/h (3 Bft)
24.03.2016 13:00 7,7 C 53 % 1013,8 hPa 0,0 l/m W-NW 0,08 h 275 W/m 13,0 km/h (3 Bft)
24.03.2016 14:00 8,5 C 51 % 1013,7 hPa 0,0 l/m W 0,42 h 380 W/m 13,0 km/h (3 Bft)
24.03.2016 15:00 8,6 C 50 % 1013,9 hPa 0,0 l/m W-SW 0,08 h 152 W/m 9,7 km/h (2 Bft)
24.03.2016 16:00 8,3 C 50 % 1014,1 hPa 0,0 l/m SW 0,00 h 88 W/m 5,6 km/h (1 Bft)
24.03.2016 17:00 8,2 C 51 % 1014,3 hPa 0,0 l/m SW 0,00 h 38 W/m 1,5 km/h (1 Bft)
24.03.2016 18:00 7,9 C 54 % 1014,6 hPa 0,0 l/m N 0,00 h 11 W/m 1,5 km/h (1 Bft)
24.03.2016 19:00 7,0 C 61 % 1015,2 hPa 0,0 l/m W-NW 0,00 h 0 W/m 4,0 km/h (1 Bft)
24.03.2016 20:00 5,8 C 67 % 1015,7 hPa 0,0 l/m N 0,00 h 0 W/m 0,0 km/h (0 Bft)
24.03.2016 21:00 5,2 C 71 % 1015,8 hPa 0,0 l/m N 0,00 h 0 W/m 0,0 km/h (0 Bft)
24.03.2016 22:00 4,5 C 74 % 1015,7 hPa 0,0 l/m N 0,00 h 0 W/m 0,0 km/h (0 Bft)
24.03.2016 23:00 4,0 C 77 % 1015,5 hPa 0,0 l/m N 0,00 h 0 W/m 0,0 km/h (0 Bft)
25.03.2016 00:00 3,7 C 79 % 1015,2 hPa 0,0 l/m N 0,00 h 0 W/m 0,0 km/h (0 Bft)
25.03.2016 01:00 3,6 C 81 % 1015,1 hPa 0,0 l/m N 0,00 h 0 W/m 0,0 km/h (0 Bft)
25.03.2016 02:00 3,5 C 83 % 1015,1 hPa 0,0 l/m N 0,00 h 0 W/m 0,0 km/h (0 Bft)
25.03.2016 03:00 3,3 C 84 % 1014,9 hPa 0,0 l/m N 0,00 h 0 W/m 0,0 km/h (0 Bft)
25.03.2016 04:00 3,3 C 84 % 1014,9 hPa 0,0 l/m W-NW 0,00 h 0 W/m 0,7 km/h (0 Bft)
25.03.2016 05:00 3,2 C 84 % 1015,0 hPa 0,0 l/m N 0,00 h 0 W/m 0,1 km/h (0 Bft)
25.03.2016 06:00 3,3 C 83 % 1015,1 hPa 0,0 l/m W-NW 0,00 h 12 W/m 1,3 km/h (1 Bft)
25.03.2016 07:00 3,5 C 83 % 1015,2 hPa 0,0 l/m SW 0,00 h 42 W/m 9,0 km/h (2 Bft)
25.03.2016 08:00 4,5 C 82 % 1015,3 hPa 0,0 l/m W 0,00 h 120 W/m 15,6 km/h (3 Bft)
25.03.2016 09:00 5,8 C 79 % 1015,0 hPa 0,0 l/m W 0,00 h 190 W/m 19,7 km/h (3 Bft)
25.03.2016 10:00 6,2 C 76 % 1014,8 hPa 0,0 l/m W-SW 0,00 h 164 W/m 25,2 km/h (4 Bft)
25.03.2016 11:00 6,4 C 78 % 1014,6 hPa 0,0 l/m W-SW 0,00 h 203 W/m 23,2 km/h (4 Bft)
25.03.2016 12:00 5,9 C 85 % 1014,5 hPa 0,2 l/m W-SW 0,00 h 164 W/m 24,4 km/h (4 Bft)
25.03.2016 13:00 4,9 C 90 % 1014,2 hPa 1,0 l/m W-SW 0,00 h 75 W/m 21,0 km/h (4 Bft)
25.03.2016 14:00 4,6 C 93 % 1013,7 hPa 0,6 l/m W-SW 0,00 h 63 W/m 16,6 km/h (3 Bft)
25.03.2016 15:00 4,6 C 94 % 1013,5 hPa 1,2 l/m W-SW 0,00 h 46 W/m 21,1 km/h (4 Bft)
25.03.2016 16:00 4,9 C 94 % 1013,8 hPa 0,2 l/m W-SW 0,00 h 56 W/m 23,6 km/h (4 Bft)
25.03.2016 17:00 5,1 C 93 % 1014,3 hPa 0,4 l/m W-SW 0,00 h 25 W/m 20,5 km/h (4 Bft)
25.03.2016 18:00 5,0 C 93 % 1014,8 hPa 0,4 l/m W-SW 0,00 h 10 W/m 18,5 km/h (3 Bft)
25.03.2016 19:00 4,9 C 93 % 1015,3 hPa 0,0 l/m W-SW 0,00 h 0 W/m 19,7 km/h (3 Bft)
25.03.2016 20:00 5,2 C 93 % 1016,0 hPa 0,0 l/m W-SW 0,00 h 0 W/m 21,6 km/h (4 Bft)
25.03.2016 21:00 5,3 C 92 % 1016,4 hPa 0,0 l/m W-SW 0,00 h 0 W/m 19,8 km/h (4 Bft)
25.03.2016 22:00 5,3 C 92 % 1016,8 hPa 0,0 l/m W-SW 0,00 h 0 W/m 17,0 km/h (3 Bft)
25.03.2016 23:00 5,4 C 93 % 1017,3 hPa 0,0 l/m W 0,00 h 0 W/m 14,9 km/h (3 Bft)
26.03.2016 00:00 5,4 C 93 % 1017,4 hPa 0,2 l/m W 0,00 h 0 W/m 15,3 km/h (3 Bft)
26.03.2016 01:00 5,4 C 95 % 1017,6 hPa 0,0 l/m W 0,00 h 0 W/m 12,9 km/h (3 Bft)
26.03.2016 02:00 5,5 C 95 % 1018,0 hPa 0,0 l/m W-NW 0,00 h 0 W/m 8,9 km/h (2 Bft)
26.03.2016 03:00 5,3 C 95 % 1018,3 hPa 0,2 l/m NW 0,00 h 0 W/m 4,8 km/h (1 Bft)
26.03.2016 04:00 4,9 C 95 % 1018,8 hPa 0,2 l/m N 0,00 h 0 W/m 0,5 km/h (0 Bft)
26.03.2016 05:00 4,0 C 95 % 1019,5 hPa 0,0 l/m N 0,00 h 0 W/m 0,0 km/h (0 Bft)
26.03.2016 06:00 3,4 C 95 % 1020,1 hPa 0,0 l/m N 0,00 h 9 W/m 0,0 km/h (0 Bft)
26.03.2016 07:00 3,9 C 96 % 1020,3 hPa 0,0 l/m N 0,00 h 39 W/m 0,0 km/h (0 Bft)
26.03.2016 08:00 4,8 C 98 % 1020,4 hPa 0,0 l/m W-NW 0,00 h 99 W/m 4,1 km/h (1 Bft)
26.03.2016 09:00 6,4 C 96 % 1020,4 hPa 0,0 l/m S-SW 0,50 h 306 W/m 10,4 km/h (2 Bft)
26.03.2016 10:00 8,2 C 87 % 1020,1 hPa 0,0 l/m SW 0,33 h 316 W/m 13,2 km/h (3 Bft)
26.03.2016 11:00 9,3 C 81 % 1019,6 hPa 0,0 l/m S-SW 0,33 h 368 W/m 14,9 km/h (3 Bft)
26.03.2016 12:00 10,2 C 74 % 1018,8 hPa 0,0 l/m SW 0,25 h 370 W/m 10,3 km/h (2 Bft)
26.03.2016 13:00 11,8 C 64 % 1017,9 hPa 0,0 l/m S-SW 0,75 h 609 W/m 11,9 km/h (2 Bft)
26.03.2016 14:00 12,5 C 59 % 1017,0 hPa 0,0 l/m SW 0,83 h 601 W/m 8,3 km/h (2 Bft)
26.03.2016 15:00 13,3 C 55 % 1016,4 hPa 0,0 l/m S-SO 1,00 h 534 W/m 6,5 km/h (2 Bft)
26.03.2016 16:00 13,3 C 55 % 1015,8 hPa 0,0 l/m O 1,00 h 375 W/m 7,0 km/h (2 Bft)
26.03.2016 17:00 13,0 C 56 % 1015,4 hPa 0,0 l/m O 0,92 h 181 W/m 7,8 km/h (2 Bft)
26.03.2016 18:00 11,6 C 61 % 1015,0 hPa 0,0 l/m O-SO 0,00 h 15 W/m 8,8 km/h (2 Bft)
26.03.2016 19:00 9,9 C 68 % 1014,6 hPa 0,0 l/m O-SO 0,00 h 0 W/m 2,7 km/h (1 Bft)
26.03.2016 20:00 7,6 C 75 % 1014,2 hPa 0,0 l/m N 0,00 h 0 W/m 0,1 km/h (0 Bft)
26.03.2016 21:00 6,0 C 81 % 1013,9 hPa 0,0 l/m N 0,00 h 0 W/m 0,1 km/h (0 Bft)
26.03.2016 22:00 5,0 C 85 % 1013,4 hPa 0,0 l/m N 0,00 h 0 W/m 0,0 km/h (0 Bft)
26.03.2016 23:00 4,2 C 87 % 1013,1 hPa 0,0 l/m N 0,00 h 0 W/m 0,1 km/h (0 Bft)
27.03.2016 00:00 3,4 C 89 % 1012,7 hPa 0,0 l/m N 0,00 h 0 W/m 0,0 km/h (0 Bft)
27.03.2016 01:00 2,3 C 89 % 1012,2 hPa 0,0 l/m N 0,00 h 0 W/m 0,0 km/h (0 Bft)
27.03.2016 03:00 1,5 C 91 % 1011,9 hPa 0,0 l/m N 0,00 h 0 W/m 0,0 km/h (0 Bft)
27.03.2016 04:00 0,8 C 92 % 1011,2 hPa 0,0 l/m N 0,00 h 0 W/m 0,0 km/h (0 Bft)
27.03.2016 05:00 0,3 C 93 % 1010,7 hPa 0,0 l/m N 0,00 h 0 W/m 0,0 km/h (0 Bft)
27.03.2016 06:00 -0,1 C 93 % 1010,3 hPa 0,0 l/m N 0,00 h 0 W/m 0,5 km/h (0 Bft)
27.03.2016 07:00 -0,0 C 95 % 1010,2 hPa 0,0 l/m N 0,00 h 12 W/m 0,9 km/h (0 Bft)
27.03.2016 08:00 0,7 C 95 % 1010,1 hPa 0,0 l/m N 0,33 h 104 W/m 0,3 km/h (0 Bft)
27.03.2016 09:00 3,4 C 93 % 1011,0 hPa 0,0 l/m O-SO 0,00 h 86 W/m 4,6 km/h (1 Bft)
27.03.2016 10:00 6,1 C 89 % 1012,4 hPa 0,0 l/m S-SW 0,33 h 235 W/m 9,9 km/h (2 Bft)
27.03.2016 11:00 10,7 C 72 % 1013,0 hPa 0,0 l/m W 0,75 h 417 W/m 23,6 km/h (4 Bft)
27.03.2016 12:00 11,9 C 67 % 1013,2 hPa 0,0 l/m W 0,08 h 157 W/m 22,1 km/h (4 Bft)
27.03.2016 13:00 10,0 C 74 % 1013,8 hPa 0,0 l/m W-NW 0,00 h 95 W/m 15,2 km/h (3 Bft)
27.03.2016 14:00 11,2 C 70 % 1013,3 hPa 0,0 l/m W-SW 0,33 h 402 W/m 14,4 km/h (3 Bft)
27.03.2016 15:00 11,4 C 68 % 1012,9 hPa 0,0 l/m W-SW 0,17 h 271 W/m 17,7 km/h (3 Bft)
27.03.2016 16:00 11,0 C 68 % 1012,5 hPa 0,0 l/m W-SW 0,00 h 161 W/m 15,7 km/h (3 Bft)
27.03.2016 17:00 10,2 C 68 % 1012,5 hPa 0,0 l/m W-SW 0,00 h 57 W/m 13,0 km/h (3 Bft)
27.03.2016 18:00 9,1 C 74 % 1013,0 hPa 0,0 l/m W 0,00 h 38 W/m 13,3 km/h (3 Bft)
27.03.2016 19:00 8,2 C 80 % 1013,4 hPa 0,0 l/m W 0,00 h 12 W/m 5,4 km/h (1 Bft)
27.03.2016 20:00 7,5 C 85 % 1013,6 hPa 0,0 l/m W 0,00 h 0 W/m 7,2 km/h (2 Bft)
27.03.2016 21:00 6,8 C 86 % 1013,8 hPa 0,0 l/m SW 0,00 h 0 W/m 10,6 km/h (2 Bft)
27.03.2016 22:00 6,3 C 88 % 1013,4 hPa 0,0 l/m SW 0,00 h 0 W/m 8,2 km/h (2 Bft)
27.03.2016 23:00 5,4 C 89 % 1013,4 hPa 0,0 l/m SW 0,00 h 0 W/m 9,3 km/h (2 Bft)
Min-Datum _ 27.03.16 24.03.16 23.03.16 - - - - 21.03.16
_ Min-Zeit 06:50 14:55 05:20 - - - - 00:45
Minimum _ -0,3 C 47 % 1005,9 hPa - - - - 0,0 km/h (0 Bft)
Max-Datum _ 26.03.16 25.03.16 26.03.16 25.03.16 - 21.03.16 27.03.16 25.03.16
_ Max-Zeit 15:40 18:40 08:20 15:05 - 12:40 14:40 16:30
Maximum _ 13,7 C 98 % 1020,5 hPa 1,2 l/m - 0,08 h 956 W/m 37,0 km/h
W-SW (5 Bft)
Durchschnitt _ 5,4 C 78 % 1013,3 hPa #4,6 l/m W-SW #17:10 h 179 W/m 7,0 km/h (2 Bft)